Time;durP1;ratioP1;P1;durP2;ratioP2;P2;SDS_P1;SDS_P2;PMS_P1;PMS_P2;Temp;Humidity;BMP_temperature;BMP_pressure;BME280_temperature;BME280_humidity;BME280_pressure;Samples;Min_cycle;Max_cycle;Signal;HPM_P1;HPM_P2
2022/12/20 00:01:30;;;;;;;4.72;1.92;;;;;;;10.81;79.79;101256.84;5032041;28;20040;-69
2022/12/20 00:03:58;;;;;;;4.35;2.20;;;;;;;10.83;80.04;101247.38;5031290;28;20044;-69
2022/12/20 00:06:24;;;;;;;3.88;1.88;;;;;;;10.84;79.61;101248.22;5022469;28;20376;-68
2022/12/20 00:08:58;;;;;;;2.55;1.77;;;;;;;10.99;79.11;101243.00;5029290;28;20049;-70
2022/12/20 00:11:25;;;;;;;2.67;1.77;;;;;;;11.06;78.47;101237.81;5024674;28;20033;-70
2022/12/20 00:13:50;;;;;;;5.72;2.00;;;;;;;11.21;78.56;101224.84;5026180;28;20037;-70
2022/12/20 00:16:19;;;;;;;4.18;2.20;;;;;;;11.17;79.37;101227.44;5024329;28;20479;-70
2022/12/20 00:18:44;;;;;;;3.40;1.88;;;;;;;11.15;79.91;101221.41;5021424;28;20445;-70
2022/12/20 00:21:13;;;;;;;3.00;2.25;;;;;;;11.08;80.45;101215.41;5024847;28;20041;-70
2022/12/20 00:23:39;;;;;;;3.70;2.03;;;;;;;11.07;80.36;101208.50;5024973;28;20041;-69
2022/12/20 00:26:13;;;;;;;4.70;2.00;;;;;;;11.04;80.30;101200.72;5028267;28;20100;-69
2022/12/20 00:28:39;;;;;;;4.00;1.70;;;;;;;11.05;80.51;101199.88;5024153;28;20099;-69
2022/12/20 00:31:06;;;;;;;2.80;1.50;;;;;;;11.05;80.41;101184.34;5023459;28;20111;-70
2022/12/20 00:33:32;;;;;;;9.52;2.03;;;;;;;11.09;80.19;101180.91;5027688;28;20065;-70
2022/12/20 00:35:58;;;;;;;3.42;1.88;;;;;;;11.17;80.17;101176.56;5021733;28;20095;-70
2022/12/20 00:38:24;;;;;;;4.15;1.58;;;;;;;11.19;79.89;101177.41;5027356;28;20038;-70
2022/12/20 00:41:07;;;;;;;4.00;1.73;;;;;;;11.33;80.15;101167.00;5028746;28;20029;-70
2022/12/20 00:43:33;;;;;;;3.63;1.48;;;;;;;11.26;80.58;101161.00;5026318;28;20052;-70
2022/12/20 00:45:59;;;;;;;3.22;1.90;;;;;;;11.17;81.18;101173.09;5037044;28;20462;-70
2022/12/20 00:48:26;;;;;;;3.17;1.67;;;;;;;11.05;81.56;101170.56;5027096;28;20039;-72
2022/12/20 00:50:52;;;;;;;3.38;1.88;;;;;;;10.95;81.88;101168.91;5031244;28;20441;-71
2022/12/20 00:53:18;;;;;;;4.50;1.90;;;;;;;10.85;82.04;101165.47;5029062;28;20080;-71
2022/12/20 00:55:45;;;;;;;2.45;1.63;;;;;;;10.79;82.20;101178.41;5027387;28;20029;-72
2022/12/20 00:58:11;;;;;;;5.03;2.00;;;;;;;10.73;82.47;101181.00;5025201;28;20104;-72
2022/12/20 01:00:37;;;;;;;3.28;1.80;;;;;;;10.72;82.28;101174.97;5024584;28;20030;-72
2022/12/20 01:03:03;;;;;;;2.88;1.73;;;;;;;10.64;82.82;101179.31;5026313;28;20037;-72
2022/12/20 01:05:28;;;;;;;4.15;2.17;;;;;;;10.57;82.67;101187.06;5030625;28;20083;-72
2022/12/20 01:07:53;;;;;;;6.57;2.22;;;;;;;10.51;81.98;101187.94;5022997;28;20053;-72
2022/12/20 01:10:19;;;;;;;2.83;2.10;;;;;;;10.44;82.57;101186.25;5023874;28;20049;-72
2022/12/20 01:12:44;;;;;;;4.78;2.63;;;;;;;10.36;82.46;101197.44;5022232;28;20577;-72
2022/12/20 01:15:11;;;;;;;4.90;2.83;;;;;;;10.27;82.91;101202.63;5022683;28;20510;-72
2022/12/20 01:17:36;;;;;;;4.40;2.65;;;;;;;10.39;82.06;101200.00;5022415;28;20466;-72
2022/12/20 01:20:04;;;;;;;4.15;2.50;;;;;;;10.35;81.86;101214.69;5031925;28;20105;-73
2022/12/20 01:22:29;;;;;;;7.30;2.80;;;;;;;10.32;81.87;101209.50;5024837;28;20522;-73
2022/12/20 01:24:54;;;;;;;3.70;1.95;;;;;;;10.34;82.85;101209.50;5022818;28;20038;-73
2022/12/20 01:27:20;;;;;;;4.05;2.60;;;;;;;10.35;82.21;101199.19;5024895;28;20037;-72
2022/12/20 01:29:45;;;;;;;5.70;2.42;;;;;;;10.41;82.72;101204.34;5025548;28;20183;-73
2022/12/20 01:32:11;;;;;;;5.00;2.47;;;;;;;10.44;82.60;101212.09;5022455;28;20026;-72
2022/12/20 01:34:36;;;;;;;5.15;2.40;;;;;;;10.47;82.61;101218.97;5032955;28;20045;-73
2022/12/20 01:37:02;;;;;;;5.25;2.50;;;;;;;10.41;81.95;101211.22;5024067;28;20373;-73
2022/12/20 01:39:27;;;;;;;4.75;2.42;;;;;;;10.35;81.99;101211.22;5023122;28;20048;-73
2022/12/20 01:41:52;;;;;;;6.00;2.72;;;;;;;10.30;82.44;101210.38;5027275;28;20041;-74
2022/12/20 01:44:18;;;;;;;6.00;2.55;;;;;;;10.22;83.54;101203.47;5023102;28;20550;-71
2022/12/20 01:46:46;;;;;;;3.67;2.63;;;;;;;10.17;82.76;101201.75;5029954;28;20226;-73
2022/12/20 01:49:25;;;;;;;4.22;2.42;;;;;;;10.13;83.72;101194.84;5029879;28;20127;-72
2022/12/20 01:52:13;;;;;;;5.07;2.58;;;;;;;10.08;84.09;101205.19;5027152;28;20042;-73
2022/12/20 01:54:43;;;;;;;4.85;2.40;;;;;;;10.05;83.75;101192.28;5029120;28;20048;-73
2022/12/20 01:57:19;;;;;;;3.95;2.38;;;;;;;10.06;83.72;101194.00;5024436;28;20577;-73
2022/12/20 01:59:49;;;;;;;6.22;2.67;;;;;;;10.08;84.61;101188.84;5027104;28;20037;-72
2022/12/20 02:02:15;;;;;;;4.35;2.67;;;;;;;10.08;84.03;101191.41;5031779;28;20025;-72
2022/12/20 02:04:40;;;;;;;3.42;2.40;;;;;;;10.07;84.25;101192.28;5024119;28;20045;-72
2022/12/20 02:07:07;;;;;;;4.95;2.40;;;;;;;10.10;84.29;101198.31;5027614;28;20030;-73
2022/12/20 02:09:36;;;;;;;7.28;2.67;;;;;;;10.12;83.98;101200.88;5025436;28;20061;-72
2022/12/20 02:12:19;;;;;;;6.32;2.58;;;;;;;10.15;83.54;101196.56;5024743;28;20041;-72
2022/12/20 02:15:08;;;;;;;5.43;2.95;;;;;;;10.14;84.27;101191.41;5027396;28;20038;-72
2022/12/20 02:18:11;;;;;;;6.07;2.55;;;;;;;10.18;83.78;101186.25;5025557;28;20040;-72
2022/12/20 02:21:12;;;;;;;4.35;2.30;;;;;;;10.21;84.07;101183.66;5027323;28;20425;-72
2022/12/20 02:24:21;;;;;;;7.30;2.55;;;;;;;10.18;83.26;101181.06;5027886;28;20037;-72
2022/12/20 02:26:56;;;;;;;4.88;2.78;;;;;;;10.16;83.97;101179.34;5026546;28;20074;-72
2022/12/20 02:29:42;;;;;;;3.22;2.15;;;;;;;10.19;83.34;101175.06;5031139;28;20030;-72
2022/12/20 02:32:11;;;;;;;7.13;3.70;;;;;;;9.94;82.77;101177.66;5026730;28;20025;-72
2022/12/20 02:34:38;;;;;;;6.95;4.47;;;;;;;9.60;83.73;101180.19;5031774;28;20045;-72
2022/12/20 02:37:04;;;;;;;10.05;4.90;;;;;;;9.40;83.98;101166.34;5030488;28;20029;-72
2022/12/20 02:39:32;;;;;;;7.85;4.47;;;;;;;9.24;85.58;101161.97;5023028;28;20039;-72
2022/12/20 02:42:03;;;;;;;8.73;4.55;;;;;;;9.13;85.86;101168.81;5026898;28;20059;-72
2022/12/20 02:47:25;;;;;;;7.00;4.50;;;;;;;8.91;87.76;101175.59;5024125;28;20043;-72
2022/12/20 02:49:54;;;;;;;7.07;5.07;;;;;;;8.87;87.98;101178.16;5025915;28;20065;-72
2022/12/20 02:52:25;;;;;;;8.48;4.63;;;;;;;8.84;88.53;101167.84;5025882;28;20038;-72
2022/12/20 02:54:54;;;;;;;7.32;4.88;;;;;;;8.77;89.10;101159.19;5031636;28;20041;-72
2022/12/20 02:57:44;;;;;;;6.00;4.43;;;;;;;8.71;89.14;101160.88;5026783;28;20063;-72
2022/12/20 03:00:12;;;;;;;7.10;4.25;;;;;;;8.66;89.74;101170.31;5026636;28;20128;-72
2022/12/20 03:05:25;;;;;;;7.32;4.60;;;;;;;8.61;90.26;101172.84;5029327;28;20505;-72
2022/12/20 03:07:52;;;;;;;7.70;4.10;;;;;;;8.63;91.09;101181.47;5029404;28;20501;-72
2022/12/20 03:10:18;;;;;;;7.32;4.40;;;;;;;8.64;91.62;101167.69;5027724;28;20044;-72
2022/12/20 03:12:44;;;;;;;8.30;3.60;;;;;;;8.74;92.19;101155.75;5030316;28;20044;-72
2022/12/20 03:15:09;;;;;;;5.10;3.10;;;;;;;8.81;92.81;101140.28;5024389;28;20046;-72
2022/12/20 03:17:35;;;;;;;7.13;3.63;;;;;;;8.91;92.60;101139.50;5030522;28;20148;-72
2022/12/20 03:20:01;;;;;;;9.00;3.20;;;;;;;9.01;92.54;101143.84;5030651;28;20478;-72
2022/12/20 03:22:27;;;;;;;6.70;2.70;;;;;;;9.04;92.47;101150.72;5028065;28;20121;-72
2022/12/20 03:24:52;;;;;;;5.63;3.88;;;;;;;9.11;92.44;101144.72;5030256;28;20121;-71
2022/12/20 03:27:18;;;;;;;5.68;3.10;;;;;;;9.17;92.21;101136.16;5034501;28;20037;-72
2022/12/20 03:29:44;;;;;;;3.88;2.80;;;;;;;9.21;92.10;101138.75;5025207;28;20175;-72
2022/12/20 03:32:10;;;;;;;6.15;2.72;;;;;;;9.26;91.66;101144.78;5029874;28;20344;-72
2022/12/20 03:34:36;;;;;;;7.35;2.80;;;;;;;9.33;91.59;101131.03;5027090;28;20076;-72
2022/12/20 03:37:01;;;;;;;4.15;2.50;;;;;;;9.40;90.97;101131.94;5022961;28;20045;-72
2022/12/20 03:39:27;;;;;;;6.22;3.15;;;;;;;9.49;90.25;101124.22;5025345;28;20034;-72
2022/12/20 03:41:52;;;;;;;5.63;3.00;;;;;;;9.61;89.70;101134.59;5027274;28;20641;-72
2022/12/20 03:44:17;;;;;;;4.25;2.80;;;;;;;9.76;89.39;101133.75;5026017;28;20142;-72
2022/12/20 03:46:43;;;;;;;4.13;2.45;;;;;;;9.88;87.38;101137.16;5028460;28;20029;-73
2022/12/20 03:49:08;;;;;;;4.85;3.15;;;;;;;9.97;87.44;101142.34;5026610;28;20053;-72
2022/12/20 03:51:34;;;;;;;5.03;2.60;;;;;;;10.02;86.65;101150.97;5021247;28;20065;-72
2022/12/20 03:53:59;;;;;;;6.97;3.00;;;;;;;9.99;86.75;101158.72;5027620;28;20034;-73
2022/12/20 03:56:24;;;;;;;6.25;2.92;;;;;;;9.99;86.46;101150.97;5031605;28;20038;-72
2022/12/20 03:58:50;;;;;;;5.30;2.75;;;;;;;10.01;86.27;101151.81;5029723;28;20032;-73
2022/12/20 04:01:26;;;;;;;4.20;2.72;;;;;;;10.06;86.13;101149.25;5026169;28;20045;-72
2022/12/20 04:03:52;;;;;;;5.38;2.45;;;;;;;10.11;86.24;101143.22;5027085;28;20112;-73
2022/12/20 04:06:19;;;;;;;3.95;2.20;;;;;;;10.09;86.37;101146.63;5015949;28;20026;-73
2022/12/20 04:08:44;;;;;;;6.05;3.05;;;;;;;10.06;86.49;101155.25;5021925;28;21506;-72
2022/12/20 04:11:16;;;;;;;6.47;2.83;;;;;;;10.07;86.75;101156.97;5027616;28;20049;-72
2022/12/20 04:13:53;;;;;;;3.75;2.50;;;;;;;10.02;87.29;101158.72;5025593;28;20221;-72
2022/12/20 04:16:20;;;;;;;4.70;3.08;;;;;;;9.99;87.36;101147.50;5027369;28;20040;-73
2022/12/20 04:18:46;;;;;;;7.65;3.03;;;;;;;9.94;87.90;101144.91;5033072;28;20045;-73
2022/12/20 04:21:12;;;;;;;4.13;3.17;;;;;;;9.87;88.38;101140.63;5026624;28;20041;-73
2022/12/20 04:23:39;;;;;;;4.70;2.70;;;;;;;9.82;88.58;101142.34;5025233;28;21863;-74
2022/12/20 04:26:06;;;;;;;7.05;3.13;;;;;;;9.75;89.24;101140.63;5025959;28;20610;-73
2022/12/20 04:28:32;;;;;;;5.85;3.13;;;;;;;9.75;89.04;101142.34;5028194;28;20045;-73
2022/12/20 04:30:58;;;;;;;4.38;3.10;;;;;;;9.76;89.16;101136.31;5028662;28;20108;-72
2022/12/20 04:33:25;;;;;;;5.10;2.85;;;;;;;9.75;89.67;101140.63;5024413;28;20064;-72
2022/12/20 04:35:51;;;;;;;5.13;2.90;;;;;;;9.74;89.73;101133.72;5016660;28;20060;-72
2022/12/20 04:38:18;;;;;;;3.85;2.60;;;;;;;9.74;90.08;101122.53;5028777;28;20028;-71
2022/12/20 04:40:43;;;;;;;3.65;2.70;;;;;;;9.77;89.41;101109.63;5025300;28;20017;-72
2022/12/20 04:43:09;;;;;;;5.55;2.65;;;;;;;9.76;88.71;101111.38;5029367;28;21074;-72
2022/12/20 04:45:35;;;;;;;3.80;2.60;;;;;;;9.75;88.88;101119.09;5020415;28;20033;-72
2022/12/20 04:48:00;;;;;;;4.75;2.28;;;;;;;9.71;88.24;101128.56;5025586;28;20945;-72
2022/12/20 04:50:26;;;;;;;4.70;2.75;;;;;;;9.69;89.68;101125.13;5027659;28;20470;-72
2022/12/20 04:55:38;;;;;;;3.45;2.50;;;;;;;9.68;89.43;101138.88;5023251;28;20107;-72
2022/12/20 04:58:05;;;;;;;4.68;2.50;;;;;;;9.63;89.17;101130.28;5027555;28;20052;-72
2022/12/20 05:00:31;;;;;;;6.78;2.80;;;;;;;9.61;89.02;101127.69;5028916;28;20033;-73
2022/12/20 05:02:56;;;;;;;5.15;3.30;;;;;;;9.64;89.30;101116.53;5030338;28;20102;-72
2022/12/20 05:05:22;;;;;;;4.78;2.85;;;;;;;9.71;89.26;101096.72;5035452;28;20025;-73
2022/12/20 05:07:47;;;;;;;5.60;3.30;;;;;;;9.80;88.35;101100.16;5021903;28;20678;-73
2022/12/20 05:10:12;;;;;;;3.55;3.08;;;;;;;9.92;88.19;101096.72;5028847;28;20391;-72
2022/12/20 05:12:38;;;;;;;5.38;3.00;;;;;;;10.01;87.85;101094.13;5022927;28;20045;-72
2022/12/20 05:15:04;;;;;;;7.25;3.42;;;;;;;10.03;86.82;101095.00;5027446;28;20047;-72
2022/12/20 05:17:29;;;;;;;4.63;2.80;;;;;;;10.08;86.20;101104.47;5030617;28;20364;-72
2022/12/20 05:19:54;;;;;;;7.15;2.53;;;;;;;10.12;86.75;101101.00;5034223;28;20475;-73
2022/12/20 05:27:48;;;;;;;7.35;2.95;;;;;;;10.06;86.61;101098.44;5040798;28;20413;-73
2022/12/20 05:30:15;;;;;;;6.20;3.90;;;;;;;10.04;85.91;101097.56;5036586;28;20029;-72
2022/12/20 05:32:40;;;;;;;7.45;2.53;;;;;;;10.04;86.02;101104.47;5031079;28;20041;-72
2022/12/20 05:35:06;;;;;;;4.72;2.15;;;;;;;10.04;86.76;101100.16;5031334;28;20030;-72
2022/12/20 05:37:32;;;;;;;6.00;2.92;;;;;;;10.07;86.66;101091.53;5030341;28;20398;-73
2022/12/20 05:39:57;;;;;;;6.10;2.70;;;;;;;10.05;86.78;101088.97;5030603;28;20038;-72
2022/12/20 05:42:23;;;;;;;7.10;2.83;;;;;;;10.02;87.06;101081.22;5031851;28;20033;-72
2022/12/20 05:44:48;;;;;;;7.60;3.42;;;;;;;10.06;85.62;101072.59;5038586;28;20040;-72
2022/12/20 05:47:14;;;;;;;4.30;2.70;;;;;;;10.09;85.95;101070.00;5032617;28;20042;-72
2022/12/20 05:49:39;;;;;;;5.05;2.40;;;;;;;10.08;86.11;101055.41;5027234;28;20049;-72
2022/12/20 05:52:05;;;;;;;6.18;2.33;;;;;;;10.08;86.16;101055.41;5027691;28;20042;-72
2022/12/20 05:54:30;;;;;;;3.75;2.50;;;;;;;10.11;86.07;101072.59;5039719;28;20513;-72
2022/12/20 05:56:55;;;;;;;4.28;3.15;;;;;;;10.11;85.79;101075.19;5031732;28;20146;-72
2022/12/20 05:59:21;;;;;;;8.65;2.50;;;;;;;10.08;85.85;101078.66;5030205;28;20033;-72
2022/12/20 06:01:46;;;;;;;5.93;2.92;;;;;;;10.09;85.22;101077.75;5033603;28;20076;-72
2022/12/20 06:04:12;;;;;;;5.43;2.88;;;;;;;10.07;85.61;101069.16;5032093;28;20032;-72
2022/12/20 06:06:37;;;;;;;4.78;2.92;;;;;;;10.08;85.79;101063.16;5033976;28;20474;-72
2022/12/20 06:09:03;;;;;;;5.15;3.13;;;;;;;10.01;85.82;101069.16;5028429;28;20506;-72
2022/12/20 06:11:28;;;;;;;7.57;4.32;;;;;;;9.80;84.27;101061.44;5026000;28;20025;-72
2022/12/20 06:13:53;;;;;;;9.68;4.35;;;;;;;9.54;85.49;101066.59;5025569;28;20083;-72
2022/12/20 06:16:20;;;;;;;9.90;4.30;;;;;;;9.42;85.80;101063.13;5025961;28;20092;-72
2022/12/20 06:18:45;;;;;;;6.82;4.07;;;;;;;9.42;86.90;101060.53;5027789;28;20042;-73
2022/12/20 06:21:12;;;;;;;6.57;3.17;;;;;;;9.40;86.86;101055.41;5024973;28;20037;-72
2022/12/20 06:23:37;;;;;;;7.70;3.17;;;;;;;9.47;87.65;101067.44;5030128;28;20041;-73
2022/12/20 06:26:03;;;;;;;8.43;3.08;;;;;;;9.57;87.36;101066.63;5034174;28;20479;-73
2022/12/20 06:28:29;;;;;;;11.10;4.75;;;;;;;9.71;87.84;101063.16;5034370;28;20060;-73
2022/12/20 06:30:56;;;;;;;13.27;4.75;;;;;;;9.83;87.30;101058.00;5033661;28;20063;-72
2022/12/20 06:33:22;;;;;;;6.45;3.60;;;;;;;9.83;86.33;101060.56;5031394;28;20029;-73
2022/12/20 06:35:50;;;;;;;7.93;2.85;;;;;;;9.88;86.39;101061.44;5030632;28;20041;-73
2022/12/20 06:38:16;;;;;;;7.38;3.08;;;;;;;9.95;86.68;101042.50;5025339;28;20097;-72
2022/12/20 06:40:42;;;;;;;5.35;2.40;;;;;;;10.03;85.78;101040.78;5026048;28;20462;-73
2022/12/20 06:43:07;;;;;;;5.35;2.53;;;;;;;10.08;85.91;101050.22;5030779;28;20065;-72
2022/12/20 06:45:33;;;;;;;4.00;2.30;;;;;;;10.15;85.21;101041.59;5017637;28;20045;-73
2022/12/20 06:47:58;;;;;;;6.18;2.95;;;;;;;10.15;85.15;101046.75;5012430;28;20038;-72
2022/12/20 06:50:24;;;;;;;6.20;3.13;;;;;;;10.17;85.21;101047.63;5036472;28;20029;-72
2022/12/20 06:52:49;;;;;;;7.32;2.67;;;;;;;10.17;84.80;101036.44;5029537;28;20041;-72
2022/12/20 06:55:15;;;;;;;5.93;2.65;;;;;;;10.20;84.96;101033.84;5031428;28;20037;-72
2022/12/20 06:57:40;;;;;;;4.03;2.15;;;;;;;10.22;85.23;101030.38;5027683;28;20033;-72
2022/12/20 07:00:07;;;;;;;5.93;2.90;;;;;;;10.27;84.56;101024.38;5026662;28;20041;-73
2022/12/20 07:02:33;;;;;;;4.32;2.67;;;;;;;10.28;84.83;101028.66;5034712;28;20052;-72
2022/12/20 07:04:58;;;;;;;3.47;2.05;;;;;;;10.32;84.24;101028.66;5027907;28;20486;-72
2022/12/20 07:07:24;;;;;;;2.72;2.17;;;;;;;10.37;84.56;101018.28;5025447;28;20030;-73
2022/12/20 07:09:49;;;;;;;4.20;2.58;;;;;;;10.42;83.50;101024.28;5024898;28;20038;-73
2022/12/20 07:12:15;;;;;;;6.97;2.20;;;;;;;10.46;83.34;101026.00;5022538;28;20498;-72
2022/12/20 07:14:41;;;;;;;4.82;2.50;;;;;;;10.48;83.22;101026.84;5024552;28;20498;-72
2022/12/20 07:17:06;;;;;;;2.97;1.95;;;;;;;10.48;83.94;101014.78;5024521;28;20159;-72
2022/12/20 07:19:32;;;;;;;5.63;2.22;;;;;;;10.49;83.20;101007.91;5025882;28;20398;-72
2022/12/20 07:21:58;;;;;;;8.05;2.88;;;;;;;10.47;83.52;101001.88;5023792;28;20507;-72
2022/12/20 07:24:23;;;;;;;3.53;2.38;;;;;;;10.42;83.69;100991.56;5027561;28;20071;-73
2022/12/20 07:26:49;;;;;;;5.65;2.33;;;;;;;10.38;83.56;100995.03;5025127;28;20557;-72
2022/12/20 07:29:14;;;;;;;2.75;1.50;;;;;;;10.42;83.67;100993.28;5028841;28;20509;-72
2022/12/20 07:31:40;;;;;;;3.75;2.15;;;;;;;10.49;83.96;100982.06;5027829;28;20958;-72
2022/12/20 07:34:05;;;;;;;5.18;2.03;;;;;;;10.53;83.48;100988.94;5026594;28;20037;-73
2022/12/20 07:36:31;;;;;;;5.43;1.98;;;;;;;10.58;83.42;100994.94;5026403;28;20120;-72
2022/12/20 07:38:57;;;;;;;10.60;2.13;;;;;;;10.62;82.81;100991.47;5026726;28;20045;-72
2022/12/20 07:41:24;;;;;;;4.47;2.72;;;;;;;10.71;82.33;100992.28;5022982;28;20033;-72
2022/12/20 07:43:49;;;;;;;5.20;1.95;;;;;;;10.78;81.95;100987.94;5030692;28;20661;-72
2022/12/20 07:46:16;;;;;;;7.55;2.67;;;;;;;10.85;81.03;100997.38;5023936;28;20049;-73
2022/12/20 07:48:43;;;;;;;4.68;2.67;;;;;;;10.87;81.01;101003.41;5025130;28;20051;-72
2022/12/20 07:51:12;;;;;;;6.22;2.90;;;;;;;10.93;80.72;100995.59;5028388;28;20041;-72
2022/12/20 07:53:42;;;;;;;12.15;3.88;;;;;;;10.96;80.51;100997.31;5031178;28;20079;-72
2022/12/20 07:56:09;;;;;;;16.30;5.85;;;;;;;10.97;80.62;100991.28;5028062;28;20521;-73
2022/12/20 07:58:38;;;;;;;9.00;3.63;;;;;;;10.99;80.63;100992.13;5027401;28;20506;-73
2022/12/20 08:01:04;;;;;;;5.35;2.85;;;;;;;10.97;80.37;100983.50;5022228;28;20041;-73
2022/12/20 08:03:34;;;;;;;6.72;2.67;;;;;;;10.95;81.01;100986.09;5024972;28;20030;-73
2022/12/20 08:06:03;;;;;;;3.42;1.92;;;;;;;11.02;80.45;100989.50;5024808;28;20029;-72
2022/12/20 08:08:31;;;;;;;4.88;2.53;;;;;;;11.04;80.58;100991.22;5029463;28;20025;-72
2022/12/20 08:10:58;;;;;;;6.32;2.42;;;;;;;11.11;79.88;100998.06;5023485;28;20048;-72
2022/12/20 08:13:24;;;;;;;4.60;1.83;;;;;;;11.12;79.97;100994.63;5029977;28;20131;-73
2022/12/20 08:15:49;;;;;;;6.38;2.60;;;;;;;11.22;79.49;100982.47;5043672;28;20041;-73
2022/12/20 08:18:15;;;;;;;2.65;1.75;;;;;;;11.29;79.15;100979.81;5023442;28;20109;-73
2022/12/20 08:20:41;;;;;;;8.43;2.35;;;;;;;11.35;78.96;100968.56;5031678;28;20033;-73
2022/12/20 08:23:06;;;;;;;4.10;2.22;;;;;;;11.35;79.45;100965.97;5035055;28;20486;-72
2022/12/20 08:25:33;;;;;;;3.05;2.08;;;;;;;11.35;79.62;100968.56;5034472;28;20494;-69
2022/12/20 08:28:01;;;;;;;3.40;2.08;;;;;;;11.37;79.03;100969.41;5037530;28;20048;-68
2022/12/20 08:30:27;;;;;;;3.88;1.90;;;;;;;11.38;79.34;100970.25;5029774;28;20037;-68
2022/12/20 08:32:53;;;;;;;7.00;2.40;;;;;;;11.38;78.76;100978.91;5032796;28;20106;-68
2022/12/20 08:35:18;;;;;;;2.97;2.00;;;;;;;11.35;79.55;100974.59;5038957;28;20561;-66
2022/12/20 08:37:44;;;;;;;3.78;1.50;;;;;;;11.38;79.00;100968.53;5034099;28;20029;-69
2022/12/20 08:40:10;;;;;;;4.93;1.50;;;;;;;11.37;79.24;100972.00;5032738;28;20044;-66
2022/12/20 08:42:35;;;;;;;4.13;1.95;;;;;;;11.41;78.86;100973.69;5028111;28;20053;-66
2022/12/20 08:45:00;;;;;;;5.47;2.15;;;;;;;11.45;78.89;100964.22;5024196;28;20127;-67
2022/12/20 08:47:28;;;;;;;6.13;1.90;;;;;;;11.51;79.14;100970.19;5026937;28;20043;-71
2022/12/20 08:49:54;;;;;;;4.57;1.85;;;;;;;11.53;78.55;100968.44;5030446;28;20049;-72
2022/12/20 08:52:20;;;;;;;3.63;1.58;;;;;;;11.55;78.71;100971.00;5025379;28;20123;-72
2022/12/20 08:54:46;;;;;;;5.05;1.73;;;;;;;11.57;78.64;100962.38;5030186;28;20061;-72
2022/12/20 08:57:11;;;;;;;6.45;2.00;;;;;;;11.52;78.55;100964.13;5025955;28;20041;-71
2022/12/20 08:59:37;;;;;;;7.50;2.47;;;;;;;11.48;78.83;100965.03;5023351;28;20039;-72
2022/12/20 09:02:03;;;;;;;5.13;1.75;;;;;;;11.45;78.78;100971.97;5024873;28;20030;-72
2022/12/20 09:04:29;;;;;;;5.05;2.30;;;;;;;11.38;79.26;100975.44;5024008;28;20038;-72
2022/12/20 09:06:54;;;;;;;5.60;2.20;;;;;;;11.33;79.48;100978.09;5007272;28;20037;-72
2022/12/20 09:09:20;;;;;;;5.15;1.98;;;;;;;11.30;79.52;100980.69;5024586;28;20049;-73
2022/12/20 09:11:45;;;;;;;9.60;2.05;;;;;;;11.24;80.19;100979.03;5021726;28;20045;-72
2022/12/20 09:14:11;;;;;;;5.32;1.83;;;;;;;11.17;80.07;100977.34;5025523;28;20031;-73
2022/12/20 09:16:36;;;;;;;4.78;1.80;;;;;;;11.17;80.35;100969.56;5023370;28;20626;-72
2022/12/20 09:19:03;;;;;;;6.85;2.00;;;;;;;11.14;80.82;100977.34;5025463;28;20563;-73
2022/12/20 09:21:28;;;;;;;5.18;2.03;;;;;;;11.12;80.69;100980.81;5023110;28;20113;-72
2022/12/20 09:23:55;;;;;;;6.45;2.22;;;;;;;11.08;80.72;100992.91;5025250;28;20034;-72
2022/12/20 09:26:22;;;;;;;4.15;1.95;;;;;;;11.05;80.86;100995.53;5022272;28;20030;-73
2022/12/20 09:28:48;;;;;;;10.68;3.20;;;;;;;11.07;80.95;100990.34;5017881;28;20045;-73
2022/12/20 09:31:16;;;;;;;5.95;1.88;;;;;;;11.10;81.13;100990.34;5021222;28;20494;-73
2022/12/20 09:33:43;;;;;;;5.22;2.35;;;;;;;11.15;80.90;101002.38;5029674;28;20034;-71
2022/12/20 09:36:16;;;;;;;4.13;2.05;;;;;;;11.16;81.25;100991.13;5028854;28;20037;-72
2022/12/20 09:38:41;;;;;;;5.95;2.10;;;;;;;11.15;80.93;100983.38;5024871;28;20038;-72
2022/12/20 09:41:24;;;;;;;5.70;2.63;;;;;;;11.13;81.50;100985.97;5031474;28;20441;-72
2022/12/20 09:43:50;;;;;;;7.97;2.03;;;;;;;11.12;81.34;100981.69;5018135;28;20121;-72
2022/12/20 09:46:16;;;;;;;4.88;2.25;;;;;;;11.08;81.91;100989.47;5024688;28;20042;-72
2022/12/20 09:48:43;;;;;;;7.90;2.72;;;;;;;11.06;81.67;100989.50;5022211;28;20039;-73
2022/12/20 09:51:08;;;;;;;6.18;2.42;;;;;;;11.04;81.71;100987.78;5022008;28;20044;-72
2022/12/20 09:53:34;;;;;;;9.75;2.85;;;;;;;10.97;82.27;100991.28;5021262;28;20174;-72
2022/12/20 09:56:05;;;;;;;6.20;2.53;;;;;;;10.85;83.98;100984.47;5020212;28;20034;-72
2022/12/20 09:58:56;;;;;;;9.27;3.22;;;;;;;10.79;84.72;100979.31;5029889;28;20040;-73
2022/12/20 10:01:24;;;;;;;5.90;2.65;;;;;;;10.70;85.63;100974.19;5024979;28;20037;-73
2022/12/20 10:03:50;;;;;;;5.32;2.33;;;;;;;10.63;87.14;100975.09;5027863;28;20121;-72
2022/12/20 10:06:39;;;;;;;5.63;2.33;;;;;;;10.57;87.77;100975.97;5031735;28;20044;-72
2022/12/20 10:09:17;;;;;;;5.25;2.58;;;;;;;10.55;88.32;100969.97;5028556;28;20077;-74
2022/12/20 10:11:55;;;;;;;4.03;2.50;;;;;;;10.51;88.53;100963.09;5031919;28;20034;-72
2022/12/20 10:14:42;;;;;;;9.15;3.63;;;;;;;10.46;87.46;100970.00;5024551;28;20021;-72
2022/12/20 10:17:14;;;;;;;5.40;3.33;;;;;;;10.42;88.04;100970.88;5027201;28;20049;-72
2022/12/20 10:20:02;;;;;;;11.68;4.47;;;;;;;10.40;87.50;100976.94;5031661;28;20037;-72
2022/12/20 10:22:53;;;;;;;11.13;3.80;;;;;;;10.44;87.42;100982.09;5029582;28;20065;-72
2022/12/20 10:25:22;;;;;;;8.98;3.00;;;;;;;10.43;87.56;100984.66;5016595;28;20120;-72
2022/12/20 10:27:53;;;;;;;7.40;3.40;;;;;;;10.39;86.85;100986.41;5027520;28;20124;-72
2022/12/20 10:30:25;;;;;;;5.47;2.92;;;;;;;10.34;86.72;100985.56;5027840;28;20057;-72
2022/12/20 10:32:53;;;;;;;7.43;3.40;;;;;;;10.26;86.75;100974.41;5028020;28;20420;-69
2022/12/20 10:35:32;;;;;;;11.52;3.78;;;;;;;10.20;87.79;100956.34;5029215;28;20033;-69
2022/12/20 10:38:05;;;;;;;6.00;3.50;;;;;;;10.16;87.72;100957.22;5024059;28;20471;-69
2022/12/20 10:40:35;;;;;;;7.53;3.42;;;;;;;10.16;88.16;100949.47;5023285;28;20563;-69
2022/12/20 10:43:03;;;;;;;5.10;3.08;;;;;;;10.22;88.63;100934.81;5031286;28;20072;-69
2022/12/20 10:45:34;;;;;;;6.90;2.53;;;;;;;10.39;87.98;100915.75;5031063;28;20041;-68
2022/12/20 10:48:03;;;;;;;4.75;2.00;;;;;;;10.53;87.19;100919.16;5024557;28;20068;-69
2022/12/20 10:50:29;;;;;;;3.65;1.75;;;;;;;10.61;86.58;100919.97;5023710;28;20034;-69
2022/12/20 10:53:15;;;;;;;3.30;1.73;;;;;;;10.70;86.71;100909.56;5026174;28;20042;-68
2022/12/20 10:55:41;;;;;;;6.80;2.55;;;;;;;10.82;85.48;100916.38;5023674;28;20045;-70
2022/12/20 10:58:20;;;;;;;5.38;2.13;;;;;;;10.92;84.68;100915.47;5023821;28;20049;-69
2022/12/20 11:00:48;;;;;;;3.60;2.40;;;;;;;11.00;83.78;100904.19;5022267;28;20100;-71
2022/12/20 11:03:18;;;;;;;5.18;1.85;;;;;;;11.08;83.59;100898.94;5026618;28;20068;-70
2022/12/20 11:06:03;;;;;;;6.80;2.08;;;;;;;11.13;82.31;100900.59;5028578;28;20077;-69
2022/12/20 11:08:31;;;;;;;4.65;1.85;;;;;;;11.09;83.27;100911.88;5024405;28;20395;-70
2022/12/20 11:11:10;;;;;;;4.40;1.90;;;;;;;11.07;83.86;100895.47;5023589;28;20128;-71
2022/12/20 11:13:36;;;;;;;4.20;1.58;;;;;;;11.05;83.65;100897.22;5021354;28;20041;-69
2022/12/20 11:16:01;;;;;;;5.72;2.25;;;;;;;11.02;83.81;100894.66;5027417;28;20402;-70
2022/12/20 11:18:48;;;;;;;6.32;2.15;;;;;;;11.03;83.22;100891.22;5030830;28;20182;-70
2022/12/20 11:21:20;;;;;;;4.25;2.25;;;;;;;11.02;83.38;100902.44;5030264;28;20029;-70
2022/12/20 11:24:07;;;;;;;7.03;2.05;;;;;;;11.00;83.89;100892.97;5030697;28;20113;-70
2022/12/20 11:26:56;;;;;;;5.60;2.47;;;;;;;11.01;83.09;100890.34;5029166;28;20025;-71
2022/12/20 11:29:40;;;;;;;4.80;2.00;;;;;;;11.00;83.41;100877.44;5035211;28;20083;-71
2022/12/20 11:32:11;;;;;;;3.85;1.70;;;;;;;10.99;83.90;100858.47;5029860;28;20041;-71
2022/12/20 11:35:22;;;;;;;5.03;2.17;;;;;;;11.01;83.95;100855.91;5030642;28;20041;-71
2022/12/20 11:38:26;;;;;;;4.75;2.38;;;;;;;11.09;82.56;100857.53;5024200;28;20045;-71
2022/12/20 11:41:12;;;;;;;3.95;2.03;;;;;;;11.09;83.05;100857.53;5005103;28;20056;-70
2022/12/20 11:44:07;;;;;;;6.57;1.80;;;;;;;11.11;82.34;100850.63;5001267;28;20050;-69
2022/12/20 11:47:11;;;;;;;2.40;1.60;;;;;;;11.11;82.82;100857.50;5011040;28;20813;-69
2022/12/20 11:50:11;;;;;;;5.93;1.80;;;;;;;11.10;82.58;100850.66;5017980;28;20046;-72